Time;durP1;ratioP1;P1;durP2;ratioP2;P2;SDS_P1;SDS_P2;PMS_P1;PMS_P2;Temp;Humidity;BMP_temperature;BMP_pressure;BME280_temperature;BME280_humidity;BME280_pressure;Samples;Min_cycle;Max_cycle;Signal;HPM_P1;HPM_P2
2022/09/29 00:01:18;;;;;;;4.45;0.80;;;;;;;21.39;51.60;100913.94;5027614;28;20106;-70
2022/09/29 00:03:48;;;;;;;1.60;0.73;;;;;;;21.36;51.65;100917.47;5021626;28;20060;-70
2022/09/29 00:06:18;;;;;;;1.45;0.70;;;;;;;21.37;51.07;100916.56;5021804;28;20380;-72
2022/09/29 00:08:47;;;;;;;1.83;0.68;;;;;;;21.36;51.69;100922.75;5020758;28;20412;-70
2022/09/29 00:11:18;;;;;;;2.35;0.80;;;;;;;21.32;52.37;100913.13;5020418;28;20050;-68
2022/09/29 00:13:47;;;;;;;2.67;0.70;;;;;;;21.27;52.09;100909.69;5019875;28;20055;-70
2022/09/29 00:16:16;;;;;;;1.65;0.80;;;;;;;21.25;52.47;100917.59;5020484;28;20056;-69
2022/09/29 00:18:47;;;;;;;2.28;1.00;;;;;;;21.24;53.03;100917.63;5023363;28;20056;-69
2022/09/29 00:21:19;;;;;;;2.97;0.82;;;;;;;21.23;52.98;100913.25;5026867;28;20428;-68
2022/09/29 00:23:49;;;;;;;1.92;0.90;;;;;;;21.22;52.21;100911.50;5024328;28;20132;-68
2022/09/29 00:26:20;;;;;;;1.40;0.77;;;;;;;21.18;52.18;100915.94;5022998;28;20507;-70
2022/09/29 00:28:51;;;;;;;6.53;0.80;;;;;;;21.10;52.34;100910.78;5022154;28;20045;-70
2022/09/29 00:31:21;;;;;;;4.13;0.80;;;;;;;21.01;52.65;100908.25;5020639;28;20096;-68
2022/09/29 00:33:51;;;;;;;1.30;0.70;;;;;;;21.01;53.21;100913.50;5021710;28;20072;-69
2022/09/29 00:36:21;;;;;;;1.90;0.77;;;;;;;20.96;53.62;100910.06;5022210;28;20077;-69
2022/09/29 00:38:51;;;;;;;2.15;0.77;;;;;;;20.97;53.40;100914.41;5022259;28;20140;-70
2022/09/29 00:41:23;;;;;;;2.90;0.70;;;;;;;20.96;53.40;100915.31;5021810;28;20048;-69
2022/09/29 00:43:58;;;;;;;3.25;0.93;;;;;;;20.92;54.19;100917.09;5022115;28;20057;-69
2022/09/29 00:46:37;;;;;;;2.80;0.80;;;;;;;20.89;54.51;100917.13;5018421;28;20081;-70
2022/09/29 00:49:15;;;;;;;3.15;0.70;;;;;;;20.86;54.13;100924.19;5030094;28;20494;-69
2022/09/29 00:51:48;;;;;;;1.15;0.70;;;;;;;20.85;54.36;100922.44;5035369;28;20498;-70
2022/09/29 00:54:18;;;;;;;5.85;0.98;;;;;;;20.84;54.96;100920.69;5024995;28;20050;-69
2022/09/29 00:56:48;;;;;;;2.20;0.80;;;;;;;20.80;54.52;100925.13;5025293;28;20057;-71
2022/09/29 00:59:24;;;;;;;2.53;0.70;;;;;;;20.71;54.42;100925.22;5030380;28;20060;-71
2022/09/29 01:01:54;;;;;;;1.50;0.68;;;;;;;20.62;55.82;100920.03;5035369;28;20046;-72
2022/09/29 01:04:24;;;;;;;2.95;0.93;;;;;;;20.61;56.00;100929.66;5028136;28;20518;-70
2022/09/29 01:06:57;;;;;;;4.97;1.08;;;;;;;20.59;56.21;100931.47;5021252;28;20050;-71
2022/09/29 01:09:27;;;;;;;;;;;;;;;20.55;56.41;100939.31;5023287;28;20056;-71
2022/09/29 01:11:57;;;;;;;2.75;0.80;;;;;;;20.54;57.23;100937.59;5020984;28;19971;-69
2022/09/29 01:14:28;;;;;;;3.20;0.73;;;;;;;20.50;58.10;100937.63;5027832;28;20092;-69
2022/09/29 01:16:57;;;;;;;5.22;1.20;;;;;;;20.42;58.04;100936.81;5028219;28;20518;-71
2022/09/29 01:19:39;;;;;;;2.70;1.10;;;;;;;20.37;62.06;100940.38;5022298;28;20057;-70
2022/09/29 01:22:15;;;;;;;3.60;0.82;;;;;;;20.30;62.90;100939.56;5024192;28;20041;-72
2022/09/29 01:25:08;;;;;;;1.23;0.68;;;;;;;20.24;64.28;100939.59;5025736;28;20518;-70
2022/09/29 01:28:09;;;;;;;4.53;0.90;;;;;;;20.16;63.92;100929.16;5024192;28;20053;-70
2022/09/29 01:31:14;;;;;;;4.70;0.95;;;;;;;20.09;64.29;100927.44;5031478;28;20086;-71
2022/09/29 01:33:48;;;;;;;2.45;1.00;;;;;;;20.06;64.77;100930.94;5021935;28;20060;-71
2022/09/29 01:36:30;;;;;;;3.40;0.85;;;;;;;20.05;64.28;100933.59;5024067;28;20053;-71
2022/09/29 01:39:11;;;;;;;1.77;0.65;;;;;;;20.01;64.70;100937.13;5022037;28;20045;-71
2022/09/29 01:41:44;;;;;;;3.28;0.88;;;;;;;19.97;66.42;100925.75;5017760;28;20458;-71
2022/09/29 01:44:21;;;;;;;3.25;0.85;;;;;;;19.91;66.81;100932.81;5035858;28;20491;-72
2022/09/29 01:46:55;;;;;;;3.15;1.40;;;;;;;19.83;66.92;100925.84;5018687;28;20052;-72
2022/09/29 01:49:27;;;;;;;6.30;1.23;;;;;;;19.78;66.67;100932.00;5031132;28;20120;-72
2022/09/29 01:52:00;;;;;;;3.47;0.90;;;;;;;19.75;68.31;100932.91;5024559;28;20052;-73
2022/09/29 01:54:35;;;;;;;5.43;0.80;;;;;;;19.72;67.48;100938.16;5021828;28;20458;-71
2022/09/29 01:57:09;;;;;;;6.25;1.30;;;;;;;19.66;65.21;100935.53;5027559;28;20080;-71
2022/09/29 01:59:45;;;;;;;3.00;0.88;;;;;;;19.64;67.96;100942.56;5022789;28;20050;-71
2022/09/29 02:02:28;;;;;;;2.55;0.93;;;;;;;19.60;66.12;100943.44;5023120;28;20050;-71
2022/09/29 02:05:03;;;;;;;4.55;1.05;;;;;;;19.58;65.39;100937.31;5023507;28;20057;-71
2022/09/29 02:07:37;;;;;;;5.50;1.05;;;;;;;19.56;67.57;100954.81;5029960;28;20061;-70
2022/09/29 02:10:11;;;;;;;7.20;1.17;;;;;;;19.52;66.67;100953.97;5031052;28;20061;-72
2022/09/29 02:12:48;;;;;;;6.32;1.15;;;;;;;19.50;66.11;100966.25;5027907;28;20060;-72
2022/09/29 02:15:22;;;;;;;2.90;0.90;;;;;;;19.51;65.85;100964.47;5010610;28;20049;-72
2022/09/29 02:17:52;;;;;;;5.07;1.40;;;;;;;19.50;66.09;100970.63;5022036;28;20049;-72
2022/09/29 02:20:21;;;;;;;4.68;1.40;;;;;;;19.51;67.63;100977.59;5017377;28;20051;-72
2022/09/29 02:22:50;;;;;;;6.03;1.77;;;;;;;19.49;68.40;100981.97;5020907;28;20484;-72
2022/09/29 02:25:20;;;;;;;6.13;1.30;;;;;;;19.43;69.19;100981.13;5018875;28;20080;-70
2022/09/29 02:27:50;;;;;;;4.68;1.05;;;;;;;19.36;68.49;100978.53;5021910;28;20049;-73
2022/09/29 02:30:19;;;;;;;2.85;1.17;;;;;;;19.32;69.28;100982.91;5021318;28;20085;-71
2022/09/29 02:32:49;;;;;;;4.40;1.20;;;;;;;19.23;68.92;100982.94;5024533;28;20050;-71
2022/09/29 02:35:19;;;;;;;4.55;1.30;;;;;;;19.14;69.49;100985.59;5029421;28;20528;-71
2022/09/29 02:38:03;;;;;;;1.98;0.80;;;;;;;19.04;70.11;100976.88;5021394;28;20049;-70
2022/09/29 02:40:42;;;;;;;4.20;1.58;;;;;;;18.99;70.43;100982.13;5018114;28;20083;-70
2022/09/29 02:43:24;;;;;;;4.85;1.42;;;;;;;18.92;70.87;100990.88;5029173;28;20227;-71
2022/09/29 02:46:07;;;;;;;3.88;1.55;;;;;;;18.88;72.22;100991.75;5037982;28;20057;-70
2022/09/29 02:49:04;;;;;;;5.15;1.25;;;;;;;18.84;72.93;101000.47;5027074;28;20072;-71
2022/09/29 02:51:40;;;;;;;3.72;1.17;;;;;;;18.81;73.85;101005.75;4999292;28;20041;-71
2022/09/29 02:54:22;;;;;;;5.88;1.50;;;;;;;18.77;75.17;101003.97;5030051;28;20049;-71
2022/09/29 02:57:01;;;;;;;4.07;1.20;;;;;;;18.73;75.33;101005.69;5029900;28;20778;-71
2022/09/29 02:59:36;;;;;;;3.13;1.20;;;;;;;18.63;76.46;100996.09;5023467;28;20053;-71
2022/09/29 03:02:05;;;;;;;3.67;1.15;;;;;;;18.64;77.31;101008.31;5022759;28;20046;-72
2022/09/29 03:04:33;;;;;;;2.55;0.98;;;;;;;18.60;77.39;101001.34;5022778;28;20054;-74
2022/09/29 03:07:03;;;;;;;7.47;1.70;;;;;;;18.55;78.07;101009.16;5017528;28;20424;-72
2022/09/29 03:09:32;;;;;;;5.65;1.45;;;;;;;18.51;77.93;101002.19;5022147;28;20057;-72
2022/09/29 03:12:01;;;;;;;5.10;1.15;;;;;;;18.47;77.51;101003.06;5028163;28;20054;-72
2022/09/29 03:14:29;;;;;;;2.90;1.10;;;;;;;18.44;78.09;101000.44;5028233;28;20077;-73
2022/09/29 03:16:58;;;;;;;5.28;1.60;;;;;;;18.40;78.55;101004.81;5022297;28;20049;-72
2022/09/29 03:19:26;;;;;;;8.02;1.50;;;;;;;18.38;79.20;100997.81;5022811;28;20251;-71
2022/09/29 03:21:55;;;;;;;4.05;1.20;;;;;;;18.35;79.28;101000.44;5023317;28;20333;-72
2022/09/29 03:24:25;;;;;;;5.60;0.98;;;;;;;18.25;80.68;101003.91;5019873;28;20053;-72
2022/09/29 03:26:53;;;;;;;5.30;0.88;;;;;;;18.18;79.98;101005.63;5029200;28;20049;-72
2022/09/29 03:29:22;;;;;;;6.07;1.35;;;;;;;18.13;80.16;101003.00;5021173;28;20103;-73
2022/09/29 03:31:51;;;;;;;6.80;1.15;;;;;;;18.05;81.03;100996.88;5017613;28;20478;-72
2022/09/29 03:34:19;;;;;;;3.05;1.08;;;;;;;18.03;81.85;101009.09;5020362;28;20053;-72
2022/09/29 03:36:48;;;;;;;3.92;1.10;;;;;;;17.96;83.23;101009.97;5023317;28;20041;-73
2022/09/29 03:39:16;;;;;;;3.70;1.20;;;;;;;17.91;83.31;101011.66;5022203;28;20139;-72
2022/09/29 03:41:47;;;;;;;3.70;1.10;;;;;;;17.87;83.70;101007.31;5020420;28;20048;-74
2022/09/29 03:44:15;;;;;;;6.07;1.20;;;;;;;17.84;83.80;101002.91;5021654;28;20067;-71
2022/09/29 03:46:45;;;;;;;3.15;1.00;;;;;;;17.84;83.26;101007.28;5014296;28;20704;-72
2022/09/29 03:49:13;;;;;;;2.90;1.15;;;;;;;17.82;83.01;101003.78;5018144;28;20049;-72
2022/09/29 03:51:42;;;;;;;4.72;1.58;;;;;;;17.80;83.85;101006.38;5029052;28;20084;-71
2022/09/29 03:54:11;;;;;;;5.88;1.42;;;;;;;17.76;84.22;101010.72;5023342;28;20049;-72
2022/09/29 03:56:40;;;;;;;5.85;1.85;;;;;;;17.69;85.08;101026.38;5025714;28;20111;-74
2022/09/29 03:59:11;;;;;;;5.13;1.05;;;;;;;17.62;86.64;101020.25;5012884;28;20049;-74
2022/09/29 04:01:39;;;;;;;3.40;1.48;;;;;;;17.57;87.15;101014.13;5009766;28;20175;-75
2022/09/29 04:04:09;;;;;;;8.20;1.40;;;;;;;17.53;88.51;101022.81;5022160;28;20054;-78
2022/09/29 04:06:38;;;;;;;5.65;1.40;;;;;;;17.45;88.36;101020.16;5024615;28;20777;-78
2022/09/29 04:09:07;;;;;;;3.55;1.02;;;;;;;17.42;88.65;101029.72;5022780;27;20080;-77
2022/09/29 04:11:36;;;;;;;7.75;1.80;;;;;;;17.33;86.67;101020.94;5021838;28;20049;-75
2022/09/29 04:14:04;;;;;;;6.13;1.15;;;;;;;17.35;85.36;101029.69;5025432;28;20052;-76
2022/09/29 04:16:34;;;;;;;2.85;1.20;;;;;;;17.33;85.17;101030.56;5030244;28;20074;-74
2022/09/29 04:19:03;;;;;;;7.55;1.20;;;;;;;17.30;86.03;101035.78;5029940;28;20056;-75
2022/09/29 04:21:32;;;;;;;6.60;1.40;;;;;;;17.29;88.21;101031.38;5028925;28;20053;-76
2022/09/29 04:24:00;;;;;;;3.05;1.00;;;;;;;17.28;89.32;101033.13;5028442;28;20053;-76
2022/09/29 04:26:29;;;;;;;2.65;1.35;;;;;;;17.25;89.46;101027.00;5029345;28;20049;-74
2022/09/29 04:28:57;;;;;;;5.57;1.30;;;;;;;17.21;89.46;101026.13;5026218;28;20049;-74
2022/09/29 04:31:26;;;;;;;3.80;1.13;;;;;;;17.22;90.00;101024.38;5027285;28;20453;-74
2022/09/29 04:33:56;;;;;;;3.83;1.27;;;;;;;17.20;90.17;101018.25;5025804;28;20064;-74
2022/09/29 04:36:25;;;;;;;4.88;1.27;;;;;;;17.18;90.01;101013.03;5015466;28;20824;-75
2022/09/29 04:38:53;;;;;;;5.78;1.45;;;;;;;17.13;89.78;101009.50;5016669;28;20049;-74
2022/09/29 04:41:22;;;;;;;3.08;1.25;;;;;;;17.15;90.10;101019.09;5021672;28;20054;-76
2022/09/29 04:43:50;;;;;;;3.20;1.00;;;;;;;17.13;90.16;101023.47;5023286;28;20057;-76
2022/09/29 04:46:19;;;;;;;4.15;1.20;;;;;;;17.12;89.96;101018.22;5024181;28;20046;-74
2022/09/29 04:48:47;;;;;;;4.22;1.10;;;;;;;17.07;89.34;101020.78;5021445;28;20526;-75
2022/09/29 04:51:17;;;;;;;7.50;1.50;;;;;;;17.04;89.67;101022.50;5025271;28;20049;-73
2022/09/29 04:53:46;;;;;;;5.28;1.23;;;;;;;17.01;90.06;101017.25;5023442;28;20495;-74
2022/09/29 04:56:15;;;;;;;3.00;0.82;;;;;;;16.93;90.77;101023.31;5024326;28;20041;-75
2022/09/29 04:58:43;;;;;;;1.35;0.80;;;;;;;16.87;91.50;101025.88;5024660;28;20052;-74
2022/09/29 05:01:13;;;;;;;5.28;1.48;;;;;;;16.83;91.45;101024.09;5022507;28;20459;-75
2022/09/29 05:03:42;;;;;;;2.67;1.02;;;;;;;16.82;91.72;101019.75;5023940;28;20046;-74
2022/09/29 05:06:11;;;;;;;4.00;1.55;;;;;;;16.83;91.65;101028.44;5023805;28;20049;-77
2022/09/29 05:08:41;;;;;;;5.03;1.45;;;;;;;16.82;91.77;101032.81;5024959;28;20049;-76
2022/09/29 05:11:11;;;;;;;2.90;0.88;;;;;;;16.81;91.60;101025.81;5017786;28;20183;-74
2022/09/29 05:13:40;;;;;;;6.03;1.17;;;;;;;16.78;92.22;101030.97;5020288;28;20056;-75
2022/09/29 05:16:09;;;;;;;8.25;1.60;;;;;;;16.75;92.77;101031.84;5021499;28;20100;-76
2022/09/29 05:18:37;;;;;;;2.42;1.17;;;;;;;16.74;93.05;101031.81;5033451;28;20045;-75
2022/09/29 05:21:07;;;;;;;6.40;1.40;;;;;;;16.73;93.84;101030.06;5031685;28;20057;-76
2022/09/29 05:23:36;;;;;;;3.35;1.63;;;;;;;16.71;93.49;101030.06;5029758;28;20057;-77
2022/09/29 05:26:07;;;;;;;6.85;1.50;;;;;;;16.72;94.20;101036.16;5027790;28;20045;-76
2022/09/29 05:28:36;;;;;;;2.97;1.17;;;;;;;16.72;94.44;101030.91;5032404;28;20488;-76
2022/09/29 05:31:07;;;;;;;6.07;1.20;;;;;;;16.73;94.42;101027.47;5027359;28;20057;-76
2022/09/29 05:33:36;;;;;;;6.07;1.35;;;;;;;16.69;94.95;101020.47;5029519;28;20049;-76
2022/09/29 05:36:07;;;;;;;3.75;1.17;;;;;;;16.71;94.53;101030.06;5023922;28;20050;-75
2022/09/29 05:38:36;;;;;;;3.33;1.33;;;;;;;16.72;95.64;101028.31;5029212;28;20045;-74
2022/09/29 05:41:08;;;;;;;4.50;1.65;;;;;;;16.70;95.80;101030.06;5027141;28;20064;-73
2022/09/29 05:43:37;;;;;;;6.18;1.30;;;;;;;16.70;95.62;101032.69;5026677;28;21269;-73
2022/09/29 05:46:07;;;;;;;2.85;1.40;;;;;;;16.68;94.98;101029.16;5022917;28;20050;-73
2022/09/29 05:48:36;;;;;;;5.45;1.10;;;;;;;16.67;95.59;101028.28;5019789;28;20064;-73
2022/09/29 05:51:09;;;;;;;2.83;0.90;;;;;;;16.65;95.99;101029.13;5031120;28;20049;-73
2022/09/29 05:53:38;;;;;;;6.78;1.60;;;;;;;16.63;94.99;101042.19;5024504;28;20077;-73
2022/09/29 05:56:10;;;;;;;1.27;0.98;;;;;;;16.63;95.79;101036.06;5008382;28;20050;-73
2022/09/29 05:58:39;;;;;;;;;;;;;;;16.67;95.96;101032.63;5019772;28;20056;-73
2022/09/29 06:01:08;;;;;;;2.65;1.25;;;;;;;16.67;96.09;101028.28;5027313;28;19938;-73
2022/09/29 06:03:37;;;;;;;4.70;1.10;;;;;;;16.68;97.20;101030.03;5030443;28;20037;-74
2022/09/29 06:06:07;;;;;;;4.85;1.20;;;;;;;16.68;96.22;101029.16;5026309;28;20057;-74
2022/09/29 06:08:36;;;;;;;3.63;1.13;;;;;;;16.65;96.33;101023.91;5026343;28;20488;-73
2022/09/29 06:11:09;;;;;;;1.95;1.10;;;;;;;16.63;96.14;101023.91;5025536;28;20049;-74
2022/09/29 06:13:38;;;;;;;;;;;;;;;16.63;96.59;101025.63;5025940;28;20058;-74
2022/09/29 06:16:07;;;;;;;3.75;1.02;;;;;;;16.62;95.84;101018.66;5023311;28;19933;-74
2022/09/29 06:18:36;;;;;;;3.28;1.00;;;;;;;16.63;97.11;101020.41;5030914;28;20046;-73
2022/09/29 06:21:06;;;;;;;3.60;1.10;;;;;;;16.62;97.66;101019.53;5027244;28;20610;-74
2022/09/29 06:23:35;;;;;;;3.92;1.10;;;;;;;16.62;98.10;101029.09;5017210;28;20107;-75
2022/09/29 06:26:06;;;;;;;4.60;2.13;;;;;;;16.61;98.68;101027.38;5020239;28;20546;-74
2022/09/29 06:28:36;;;;;;;3.53;1.38;;;;;;;16.55;99.47;101017.72;5030035;28;20060;-74
2022/09/29 06:31:06;;;;;;;1.30;1.20;;;;;;;16.61;98.52;101028.25;5024273;28;20046;-75
2022/09/29 06:33:36;;;;;;;6.07;1.38;;;;;;;16.63;97.32;101023.91;5025911;28;20050;-75
2022/09/29 06:38:56;;;;;;;3.70;1.52;;;;;;;16.70;97.86;101027.44;5029158;28;20060;-75
2022/09/29 06:41:25;;;;;;;4.43;2.08;;;;;;;16.70;97.96;101030.06;5017709;28;20169;-75
2022/09/29 06:43:55;;;;;;;2.60;0.93;;;;;;;16.70;96.29;101024.84;5016257;28;20088;-75
2022/09/29 06:46:25;;;;;;;4.22;1.10;;;;;;;16.71;98.01;101023.97;5023264;28;20049;-74
2022/09/29 06:48:54;;;;;;;2.10;1.17;;;;;;;16.72;97.54;101031.81;5025319;28;20041;-73
2022/09/29 06:51:24;;;;;;;3.35;1.40;;;;;;;16.72;97.77;101036.16;5027028;28;20131;-74
2022/09/29 06:53:52;;;;;;;4.05;1.40;;;;;;;16.71;97.50;101029.19;5022096;28;20045;-74
2022/09/29 06:56:21;;;;;;;4.45;1.08;;;;;;;16.67;96.89;101024.78;5024169;28;20045;-74
2022/09/29 06:58:50;;;;;;;4.28;1.23;;;;;;;16.71;97.81;101029.19;5025632;28;20454;-75
2022/09/29 07:01:20;;;;;;;3.97;1.70;;;;;;;16.69;95.41;101020.47;5030699;28;20049;-74
2022/09/29 07:03:48;;;;;;;3.65;1.27;;;;;;;16.66;96.58;101016.09;5023635;28;20049;-74
2022/09/29 07:06:17;;;;;;;6.32;1.77;;;;;;;16.60;95.08;101020.38;5021400;28;20124;-75
2022/09/29 07:08:46;;;;;;;4.35;1.00;;;;;;;16.60;94.59;101017.75;5018621;28;20070;-74
2022/09/29 07:11:15;;;;;;;4.68;1.15;;;;;;;16.60;94.35;101015.16;5025435;28;20057;-74
2022/09/29 07:13:43;;;;;;;1.55;0.77;;;;;;;16.58;93.22;101001.19;5027132;28;20068;-75
2022/09/29 07:16:14;;;;;;;4.75;1.55;;;;;;;16.57;93.68;101015.13;5025035;28;20046;-75
2022/09/29 07:18:45;;;;;;;3.97;1.15;;;;;;;16.57;95.07;101020.34;5029918;28;20140;-74
2022/09/29 07:21:16;;;;;;;4.23;0.80;;;;;;;16.58;95.12;101016.88;5029625;28;20045;-74
2022/09/29 07:23:46;;;;;;;3.70;1.27;;;;;;;16.58;95.10;101011.66;5028999;28;20050;-75
2022/09/29 07:26:16;;;;;;;3.92;1.20;;;;;;;16.57;95.28;101007.31;5022772;28;20054;-75
2022/09/29 07:28:46;;;;;;;3.15;0.98;;;;;;;16.55;94.82;101012.50;5030303;28;20080;-75
2022/09/29 07:31:17;;;;;;;1.55;0.70;;;;;;;16.51;94.84;101006.34;5021462;28;20095;-75
2022/09/29 07:33:48;;;;;;;4.30;0.93;;;;;;;16.47;93.37;101012.44;5028428;28;20057;-74
2022/09/29 07:36:18;;;;;;;1.85;0.80;;;;;;;16.49;94.19;100999.38;5023940;28;20046;-75
2022/09/29 07:38:48;;;;;;;3.28;0.90;;;;;;;16.49;94.05;101008.09;5024171;28;20085;-75
2022/09/29 07:41:17;;;;;;;3.63;0.70;;;;;;;16.50;93.68;100999.41;5028731;28;20048;-74
2022/09/29 07:43:46;;;;;;;1.08;0.63;;;;;;;16.53;94.22;101002.03;5030093;28;20442;-74
2022/09/29 07:46:15;;;;;;;5.03;1.10;;;;;;;16.54;93.72;101005.53;5026167;28;20049;-75
2022/09/29 07:48:44;;;;;;;4.25;1.02;;;;;;;16.53;93.06;100993.31;5022440;28;20056;-75
2022/09/29 07:51:16;;;;;;;3.75;0.90;;;;;;;16.51;93.19;100998.53;5021718;28;20065;-76
2022/09/29 07:53:45;;;;;;;1.35;0.68;;;;;;;16.51;93.87;100995.03;5023623;28;20053;-75
2022/09/29 07:56:16;;;;;;;3.80;0.90;;;;;;;16.50;94.26;100998.53;5026179;28;20057;-75
2022/09/29 07:58:45;;;;;;;1.40;0.60;;;;;;;16.50;94.68;101004.63;5024708;28;20046;-74
2022/09/29 08:01:14;;;;;;;5.93;1.20;;;;;;;16.51;95.18;101016.81;5030423;28;20561;-72
2022/09/29 08:03:45;;;;;;;4.18;1.13;;;;;;;16.48;94.91;101014.19;5026333;28;20166;-73
2022/09/29 08:06:16;;;;;;;2.80;0.90;;;;;;;16.45;95.40;101003.72;5017177;28;20053;-73
2022/09/29 08:08:44;;;;;;;4.57;1.33;;;;;;;16.45;96.15;101008.94;5018118;28;20052;-73
2022/09/29 08:11:14;;;;;;;4.82;0.98;;;;;;;16.41;96.24;101014.13;5030670;28;20068;-72
2022/09/29 08:13:44;;;;;;;3.97;1.05;;;;;;;16.35;96.63;101004.47;5020682;28;20057;-72
2022/09/29 08:16:14;;;;;;;2.80;0.70;;;;;;;16.32;97.47;101005.31;5025450;28;20136;-72
2022/09/29 08:18:43;;;;;;;7.03;0.82;;;;;;;16.32;98.72;101004.44;5021939;28;20133;-71
2022/09/29 08:21:14;;;;;;;4.55;1.02;;;;;;;16.30;98.24;101004.41;5027997;28;20103;-71
2022/09/29 08:23:45;;;;;;;1.58;0.75;;;;;;;16.29;99.59;101007.03;5024052;28;20046;-73
2022/09/29 08:26:15;;;;;;;3.42;0.60;;;;;;;16.27;99.20;101003.53;5022066;28;20418;-72
2022/09/29 08:28:45;;;;;;;4.97;0.93;;;;;;;16.28;99.26;101005.28;5026824;28;20111;-72
2022/09/29 08:31:16;;;;;;;2.60;1.10;;;;;;;16.30;99.30;101011.38;5024483;28;20052;-72
2022/09/29 08:33:45;;;;;;;0.98;0.57;;;;;;;16.31;99.13;101014.03;5022758;28;20045;-72
2022/09/29 08:36:15;;;;;;;5.55;1.08;;;;;;;16.34;99.19;101015.78;5021086;28;20041;-73
2022/09/29 08:38:45;;;;;;;5.15;0.80;;;;;;;16.35;98.15;101020.13;5023871;28;20062;-73
2022/09/29 08:41:32;;;;;;;2.92;0.85;;;;;;;16.36;98.10;101019.28;5022235;28;20057;-72
2022/09/29 08:44:05;;;;;;;3.38;1.02;;;;;;;16.37;99.38;101021.03;5035839;28;20057;-73
2022/09/29 08:46:38;;;;;;;2.40;0.60;;;;;;;16.32;97.67;101026.22;5027781;28;20053;-73
2022/09/29 08:49:12;;;;;;;3.42;1.23;;;;;;;16.29;97.20;101025.31;5028630;28;20107;-73
2022/09/29 08:51:44;;;;;;;4.25;0.98;;;;;;;16.27;96.24;101033.13;5025054;28;20491;-73
2022/09/29 08:54:28;;;;;;;8.80;1.05;;;;;;;16.27;95.88;101037.47;5025127;28;20139;-73
2022/09/29 08:56:57;;;;;;;2.10;0.98;;;;;;;16.27;96.21;101032.25;5024742;28;20502;-73
2022/09/29 08:59:27;;;;;;;0.70;0.55;;;;;;;16.29;96.22;101040.97;5025877;28;20041;-73
2022/09/29 09:02:14;;;;;;;2.65;0.85;;;;;;;16.29;95.71;101051.44;5022599;28;20050;-73
2022/09/29 09:05:08;;;;;;;6.22;1.52;;;;;;;16.28;96.45;101047.03;5024241;28;20100;-74
2022/09/29 09:07:46;;;;;;;2.95;1.00;;;;;;;16.32;97.08;101054.06;5025054;28;20076;-73
2022/09/29 09:10:31;;;;;;;2.05;0.65;;;;;;;16.36;97.93;101050.63;5024334;28;20045;-74
2022/09/29 09:13:30;;;;;;;2.63;0.80;;;;;;;16.36;99.16;101058.47;5026436;28;20083;-73
2022/09/29 09:16:28;;;;;;;3.38;0.75;;;;;;;16.33;99.74;101058.41;5020827;28;20056;-73
2022/09/29 09:19:28;;;;;;;2.15;0.90;;;;;;;16.29;98.40;101051.44;5021454;28;20085;-73
2022/09/29 09:22:12;;;;;;;2.60;0.65;;;;;;;16.29;98.32;101051.44;5033823;28;20045;-73
2022/09/29 09:24:48;;;;;;;2.00;0.80;;;;;;;16.27;99.24;101053.13;5025891;28;20057;-74
2022/09/29 09:27:25;;;;;;;3.65;1.00;;;;;;;16.28;99.53;101060.09;5027694;28;20057;-74
2022/09/29 09:30:03;;;;;;;1.30;0.70;;;;;;;16.29;98.57;101060.13;5028975;28;20041;-74
2022/09/29 09:32:35;;;;;;;6.63;0.82;;;;;;;16.30;99.55;101061.00;5020684;28;20144;-73
2022/09/29 09:35:17;;;;;;;2.50;0.82;;;;;;;16.27;98.49;101066.19;5016729;28;20164;-74
2022/09/29 09:37:47;;;;;;;4.13;1.20;;;;;;;16.27;98.14;101069.69;5025867;28;20061;-74
2022/09/29 09:40:19;;;;;;;3.78;0.80;;;;;;;16.29;98.53;101067.09;5027865;28;20045;-76
2022/09/29 09:42:53;;;;;;;1.75;0.75;;;;;;;16.30;97.30;101064.47;5018355;28;20108;-73
2022/09/29 09:45:29;;;;;;;1.92;0.70;;;;;;;16.28;95.97;101067.94;5019580;28;20053;-75
2022/09/29 09:48:05;;;;;;;2.45;0.68;;;;;;;16.25;97.04;101065.31;5021638;28;20046;-73
2022/09/29 09:50:34;;;;;;;1.30;0.60;;;;;;;16.24;96.36;101073.97;5021920;28;20085;-75
2022/09/29 09:53:10;;;;;;;2.88;0.60;;;;;;;16.24;97.28;101071.38;5026192;28;20053;-73
2022/09/29 09:55:39;;;;;;;2.33;0.70;;;;;;;16.20;97.01;101078.31;5025065;28;20056;-71
2022/09/29 09:58:42;;;;;;;2.22;0.85;;;;;;;16.18;96.93;101068.72;5022296;28;20494;-73
2022/09/29 10:01:13;;;;;;;1.70;0.60;;;;;;;16.20;97.39;101077.44;4995321;28;20448;-74
2022/09/29 10:03:41;;;;;;;2.47;0.85;;;;;;;16.20;98.13;101085.28;5022859;28;20065;-73
2022/09/29 10:06:10;;;;;;;1.00;0.55;;;;;;;16.20;97.65;101080.03;5021040;28;20487;-72
2022/09/29 10:08:41;;;;;;;4.80;0.80;;;;;;;16.19;98.11;101079.16;5028750;28;20449;-72
2022/09/29 10:11:23;;;;;;;4.00;0.55;;;;;;;16.20;98.36;101087.88;5028772;28;20081;-72
2022/09/29 10:13:59;;;;;;;2.97;0.70;;;;;;;16.19;98.45;101086.09;5025519;28;20738;-71
2022/09/29 10:16:40;;;;;;;5.40;0.85;;;;;;;16.17;98.66;101087.81;5022832;28;20057;-72
2022/09/29 10:19:09;;;;;;;1.10;0.80;;;;;;;16.13;97.92;101092.16;5026851;28;20111;-71
2022/09/29 10:21:40;;;;;;;5.05;1.27;;;;;;;16.09;98.31;101086.00;5028559;28;20050;-72
2022/09/29 10:24:23;;;;;;;2.53;1.00;;;;;;;16.04;98.91;101079.84;5027667;28;20927;-73
2022/09/29 10:26:55;;;;;;;3.45;1.10;;;;;;;16.04;99.42;101086.81;5025071;28;20573;-72
2022/09/29 10:29:34;;;;;;;1.35;0.98;;;;;;;16.02;98.70;101094.63;5026419;28;20513;-73
2022/09/29 10:32:07;;;;;;;3.28;1.35;;;;;;;16.01;98.42;101087.66;5018331;28;20041;-73
2022/09/29 10:34:39;;;;;;;3.45;1.15;;;;;;;15.99;98.89;101094.59;5024668;28;20065;-73
2022/09/29 10:37:22;;;;;;;3.22;1.23;;;;;;;15.98;98.93;101103.25;5029649;28;20071;-74
2022/09/29 10:39:51;;;;;;;3.58;1.10;;;;;;;15.99;99.51;101104.13;5026146;28;20053;-73
2022/09/29 10:42:26;;;;;;;4.68;1.15;;;;;;;16.01;99.33;101107.63;5027391;28;20420;-72
2022/09/29 10:45:01;;;;;;;3.50;1.08;;;;;;;16.02;99.41;101109.41;5034241;28;20049;-72
2022/09/29 10:47:32;;;;;;;2.65;0.95;;;;;;;15.95;99.06;101103.22;5025160;28;20080;-72
2022/09/29 10:50:17;;;;;;;1.55;0.93;;;;;;;15.94;99.90;101106.69;5026391;28;20053;-72
2022/09/29 10:52:49;;;;;;;1.33;0.88;;;;;;;15.95;100.00;101102.34;5026030;28;20525;-72
2022/09/29 10:55:21;;;;;;;5.05;1.55;;;;;;;15.98;100.00;101115.44;5025985;28;20053;-72
2022/09/29 10:57:50;;;;;;;8.43;0.73;;;;;;;15.99;100.00;101110.25;5024737;28;20135;-72
2022/09/29 11:00:30;;;;;;;4.35;1.00;;;;;;;16.01;100.00;101118.97;5032974;28;20345;-72
2022/09/29 11:03:08;;;;;;;1.30;0.85;;;;;;;16.01;99.68;101116.38;5022876;28;20159;-73
2022/09/29 11:05:53;;;;;;;4.38;0.98;;;;;;;16.01;99.51;101113.75;5033123;28;20061;-73
2022/09/29 11:08:24;;;;;;;3.25;1.17;;;;;;;15.99;99.05;101115.47;5025493;28;20406;-72
2022/09/29 11:11:05;;;;;;;2.50;0.90;;;;;;;16.01;98.74;101118.97;5020482;28;20093;-73
2022/09/29 11:13:39;;;;;;;1.77;0.82;;;;;;;15.97;99.72;101114.56;5004347;28;20053;-72
2022/09/29 11:16:18;;;;;;;7.03;1.10;;;;;;;15.96;99.43;101122.38;5007405;28;20046;-73
2022/09/29 11:18:51;;;;;;;1.05;0.80;;;;;;;15.96;99.39;101112.78;4998346;28;20428;-75
2022/09/29 11:22:01;;;;;;;4.78;1.10;;;;;;;15.94;100.00;101111.03;5003330;28;20181;-73
2022/09/29 11:24:47;;;;;;;4.50;1.20;;;;;;;15.90;100.00;101118.81;5003055;28;20218;-75
2022/09/29 11:27:25;;;;;;;4.70;1.08;;;;;;;15.87;100.00;101113.56;4998751;28;20058;-75
2022/09/29 11:30:04;;;;;;;1.85;1.15;;;;;;;15.90;100.00;101120.56;4997821;28;20132;-73
2022/09/29 11:32:44;;;;;;;2.83;1.25;;;;;;;15.90;100.00;101121.44;5001652;28;20054;-73
2022/09/29 11:35:34;;;;;;;1.73;0.75;;;;;;;15.89;100.00;101113.56;5005505;28;20057;-72
2022/09/29 11:38:27;;;;;;;4.07;1.15;;;;;;;15.87;100.00;101112.69;5002840;28;20049;-72
2022/09/29 11:41:12;;;;;;;3.25;1.23;;;;;;;15.95;100.00;101116.28;5000466;28;20094;-73
2022/09/29 11:43:47;;;;;;;4.15;1.02;;;;;;;15.91;99.94;101112.72;4995638;28;20058;-73
2022/09/29 11:46:36;;;;;;;4.38;1.45;;;;;;;15.92;99.89;101113.63;5005539;28;20435;-74
2022/09/29 11:49:20;;;;;;;6.50;1.33;;;;;;;15.91;100.00;101117.09;5002132;28;20053;-74
2022/09/29 11:52:09;;;;;;;2.50;1.10;;;;;;;15.89;100.00;101118.78;5004362;28;20514;-73
2022/09/29 11:54:57;;;;;;;2.80;1.35;;;;;;;15.86;100.00;101113.53;5001128;28;20056;-73